VDPP/PNH METAR and TAF weather

Enter ICAO airport designator
Station Type Date Time Source
VDPP METAR 2019/02/20 17:30 UTC NOAA

VDPP 201730Z 14008KT 9000 FEW017 27/23 Q1014


Station Type Date Time Source
VDPP Decoded METAR 2019/02/20 17:30 UTC NOAA

Phnom-Penh / Pochentong, Cambodia (VDPP) 11-33N 104-51E 10M
Feb 20, 2019 - 12:30 PM EST / 2019.02.20 1730 UTC
Wind: from the SE (140 degrees) at 9 MPH (8 KT):0
Visibility: 5 mile(s):0
Sky conditions: mostly clear
Temperature: 80 F (27 C)
Dew Point: 73 F (23 C)
Relative Humidity: 78%
Pressure (altimeter): 29.94 in. Hg (1014 hPa)
ob: VDPP 201730Z 14008KT 9000 FEW017 27/23 Q1014
cycle: 17

Station Type Date Time Source
VDPP TAF 2019/02/20 18:00 UTC NOAA

TAF VDPP 201700Z 2018/2112 12006KT 9999 FEW017


Example: see airport list